Latest Weather Observations for Cloncurry

IDQ60801

Issued at 5:52 pm EST Wednesday 24 April 2019 (issued every 10 minutes, with the page automatically refreshed every 10 minutes)

About weather observations | Map of weather stations | Latest weather observations for QLD | Other Formats
Station Details ID: 029141 Name: CLONCURRY AIRPORT Lat: -20.67 Lon: 140.50 Height: 186.0 m
Data from the previous 72 hours. | See also: Recent months at Cloncurry
Date/Time
EST
Temp
°C
App
Temp
°C
Dew
Point
°C
Rel
Hum
%
Delta-T
°C
Wind Press
QNH
hPa
Press
MSL
hPa
Rain since
9am
mm
Dir  Spd
km/h
Gust
km/h
Spd
kts
Gust
kts
24/05:30pm 29.7 26.5 11.2 31 10.7 S 19 24 10 13 1013.8 1012.7 0.0
24/05:00pm 30.8 27.1 10.2 28 11.8 SSE 20 28 11 15 1013.7 1012.6 0.0
24/04:30pm 31.1 28.0 10.4 28 11.9 SSW 17 22 9 12 1013.4 1012.3 0.0
24/04:00pm 31.5 28.9 10.8 28 12.0 SSE 15 22 8 12 1013.7 1012.6 0.0
24/03:30pm 30.4 27.3 10.4 29 11.5 SSE 17 26 9 14 1013.9 1012.8 0.0
24/03:00pm 30.2 26.6 10.7 30 11.2 S 20 30 11 16 1014.1 1013.0 0.0
24/02:30pm 31.3 28.4 11.1 29 11.8 S 17 30 9 16 1014.2 1013.1 0.0
24/02:00pm 31.1 27.8 11.5 30 11.5 SSE 20 37 11 20 1014.6 1013.5 0.0
24/01:30pm 30.2 28.5 13.5 36 10.1 SE 15 24 8 13 1015.2 1014.1 0.0
24/01:00pm 29.9 27.2 13.6 36 9.8 SSE 20 30 11 16 1015.6 1014.5 0.0
24/12:30pm 29.5 27.5 15.6 43 8.6 SSE 20 30 11 16 1016.1 1015.0 0.0
24/12:00pm 29.1 27.4 16.3 46 8.0 SSE 20 28 11 15 1016.7 1015.6 0.0
24/11:30am 28.5 26.8 17.1 50 7.2 SE 22 32 12 17 1017.2 1016.1 0.0
24/11:00am 27.8 26.5 17.3 52 6.6 SE 20 28 11 15 1017.5 1016.4 0.0
24/10:30am 26.8 25.0 17.0 55 6.2 SE 22 32 12 17 1017.8 1016.7 0.0
24/10:00am 26.5 24.7 17.0 56 5.9 SE 22 30 12 16 1017.9 1016.8 0.0
24/09:30am 25.6 23.9 17.3 60 5.2 SSE 22 30 12 16 1018.0 1016.9 0.0
24/09:00am 24.7 22.6 17.2 63 4.7 SSE 24 30 13 16 1018.0 1016.9 0.0
24/08:30am 23.6 21.9 17.3 67 3.9 S 22 28 12 15 1017.6 1016.5 0.0
24/08:00am 22.6 22.3 17.3 72 3.3 S 15 20 8 11 1017.5 1016.4 0.0
24/07:30am 21.3 21.9 16.9 76 2.7 S 9 13 5 7 1017.0 1015.9 0.0
24/07:00am 20.9 21.0 16.5 76 2.7 S 11 13 6 7 1016.8 1015.7 0.0
24/06:30am 21.1 20.7 16.3 74 2.9 S 13 15 7 8 1016.4 1015.3 0.0
24/06:00am 21.4 21.0 16.1 72 3.2 S 13 17 7 9 1016.1 1015.0 0.0
24/05:30am 21.9 21.9 16.2 70 3.5 S 11 15 6 8 1015.9 1014.8 0.0
24/05:00am 22.1 21.6 15.9 68 3.8 S 13 17 7 9 1015.5 1014.4 0.0
24/04:30am 22.3 22.2 15.9 67 3.9 S 11 15 6 8 1015.5 1014.4 0.0
24/04:00am 22.7 21.8 15.8 65 4.2 S 15 19 8 10 1015.4 1014.3 0.0
24/03:30am 23.0 21.9 15.3 62 4.6 S 15 19 8 10 1015.5 1014.4 0.0
24/03:00am 23.8 21.8 15.0 57 5.3 S 19 24 10 13 1015.7 1014.6 0.0
24/02:30am 24.0 22.0 15.0 57 5.4 S 19 24 10 13 1015.7 1014.6 0.0
24/02:00am 24.4 22.3 15.1 56 5.6 S 20 28 11 15 1015.7 1014.6 0.0
24/01:30am 24.9 22.6 14.7 53 6.1 S 20 30 11 16 1015.9 1014.8 0.0
24/01:00am 25.4 22.9 14.2 50 6.7 S 20 28 11 15 1015.9 1014.8 0.0
24/12:30am 25.8 23.5 14.6 50 6.7 S 20 26 11 14 1016.0 1014.9 0.0
24/12:00am 26.3 23.6 14.7 48 7.0 S 22 32 12 17 1016.1 1015.0 0.0
 
Date/Time
EST
Temp
°C
App
Temp
°C
Dew
Point
°C
Rel
Hum
%
Delta-T
°C
Wind Press
QNH
hPa
Press
MSL
hPa
Rain since
9am
mm
Dir  Spd
km/h
Gust
km/h
Spd
kts
Gust
kts
23/11:30pm 26.3 24.7 15.0 49 6.9 S 17 22 9 12 1016.4 1015.3 0.0
23/11:00pm 26.6 24.7 15.3 50 6.9 S 19 26 10 14 1016.5 1015.4 0.0
23/10:30pm 26.7 25.6 15.4 50 6.9 S 15 20 8 11 1016.6 1015.5 0.0
23/10:00pm 27.3 25.2 15.3 48 7.3 S 20 26 11 14 1016.6 1015.5 0.0
23/09:30pm 27.9 25.7 14.9 45 7.9 S 20 30 11 16 1016.3 1015.2 0.0
23/09:00pm 27.4 25.9 15.4 48 7.4 S 17 24 9 13 1015.9 1014.8 0.0
23/08:30pm 27.5 26.6 15.8 48 7.2 S 15 19 8 10 1015.5 1014.4 0.0
23/08:00pm 28.2 26.8 15.5 46 7.8 SSW 17 20 9 11 1015.0 1013.9 0.0
23/07:30pm 27.6 27.6 16.2 49 7.1 SSW 11 13 6 7 1014.7 1013.6 0.0
23/07:00pm 27.9 27.9 16.2 49 7.3 S 11 13 6 7 1014.5 1013.4 0.0
23/06:30pm 28.7 28.6 15.9 45 8.0 S 11 13 6 7 1014.3 1013.2 0.0
23/06:00pm 30.3 29.2 14.4 38 9.7 S 13 15 7 8 1014.0 1012.9 0.0
23/05:30pm 31.1 30.1 13.4 34 10.7 SE 11 15 6 8 1013.8 1012.7 0.0
23/05:00pm 31.3 29.7 14.0 35 10.5 SSE 15 22 8 12 1013.6 1012.5 0.0
23/04:30pm 31.9 30.5 14.5 34 10.7 ESE 15 20 8 11 1013.4 1012.3 0.0
23/04:00pm 31.5 30.8 14.2 35 10.6 SE 11 15 6 8 1013.4 1012.3 0.0
23/03:30pm 31.8 30.7 15.3 37 10.3 SE 15 24 8 13 1013.6 1012.5 0.0
23/03:00pm 30.8 30.4 15.2 38 9.7 SSE 11 17 6 9 1013.7 1012.6 0.0
23/02:30pm 31.5 31.0 15.9 39 9.8 ESE 13 22 7 12 1014.0 1012.9 0.0
23/02:00pm 30.9 30.2 15.3 38 9.7 ESE 13 20 7 11 1014.3 1013.2 0.0
23/01:30pm 30.2 28.9 15.9 42 8.9 SE 17 24 9 13 1014.8 1013.7 0.0
23/01:00pm 30.5 29.2 17.2 44 8.5 ESE 20 32 11 17 1015.3 1014.2 0.0
23/12:30pm 30.1 29.6 17.9 48 7.8 SSE 17 24 9 13 1015.7 1014.6 0.0
23/12:00pm 29.2 28.5 17.4 49 7.5 ESE 17 26 9 14 1016.4 1015.3 0.0
23/11:30am 28.3 27.2 17.2 51 7.0 E 19 26 10 14 1016.9 1015.8 0.0
23/11:00am 27.8 27.3 17.9 54 6.3 SE 17 26 9 14 1017.4 1016.3 0.0
23/10:30am 26.8 25.7 17.3 56 6.0 SE 19 26 10 14 1017.6 1016.5 0.0
23/10:00am 26.3 24.7 17.4 58 5.6 SSE 22 28 12 15 1017.8 1016.7 0.0
23/09:30am 25.8 24.6 17.4 59 5.3 SSE 20 26 11 14 1017.7 1016.6 0.0
23/09:00am 25.0 22.7 16.7 60 5.1 SSE 24 35 13 19 1017.5 1016.4 5.2
23/08:30am 24.2 23.5 16.5 62 4.8 S 15 20 8 11 1017.4 1016.3 5.2
23/08:00am 23.2 22.5 16.5 66 4.1 S 15 19 8 10 1016.9 1015.8 5.2
23/07:30am 21.2 21.1 16.0 72 3.1 S 11 13 6 7 1016.5 1015.4 5.2
23/07:00am 20.9 19.9 15.7 72 3.1 S 15 17 8 9 1016.2 1015.1 5.2
23/06:30am 20.9 20.8 15.9 73 3.0 S 11 13 6 7 1016.0 1014.9 5.2
23/06:00am 21.5 21.4 16.0 71 3.3 S 11 13 6 7 1015.6 1014.5 5.2
23/05:30am 21.7 21.3 15.1 66 3.9 S 11 13 6 7 1015.3 1014.2 5.2
23/05:00am 22.1 20.9 15.0 64 4.2 S 15 17 8 9 1015.0 1013.9 5.2
23/04:30am 22.6 21.6 14.7 61 4.7 S 13 17 7 9 1014.9 1013.8 5.2
23/04:00am 23.0 21.3 14.6 59 5.0 SSW 17 20 9 11 1014.7 1013.6 5.2
23/03:30am 23.3 21.6 14.6 58 5.2 S 17 20 9 11 1014.7 1013.6 5.2
23/03:00am 23.1 21.8 14.7 59 5.0 SSW 15 19 8 10 1014.8 1013.7 5.2
23/02:30am 23.6 22.0 14.9 58 5.2 SSW 17 20 9 11 1014.9 1013.8 5.2
23/02:00am 23.6 22.4 15.1 59 5.1 SSW 15 19 8 10 1015.0 1013.9 5.2
23/01:30am 24.1 23.2 15.9 60 5.0 SSW 15 19 8 10 1015.2 1014.1 5.2
23/01:00am 24.3 23.6 16.3 61 4.9 SSW 15 19 8 10 1015.4 1014.3 5.2
23/12:30am 24.0 23.9 17.0 65 4.4 SSW 13 15 7 8 1015.5 1014.4 5.2
23/12:00am 24.6 25.9 17.6 65 4.4 SSW 7 9 4 5 1015.8 1014.7 5.2
 
Date/Time
EST
Temp
°C
App
Temp
°C
Dew
Point
°C
Rel
Hum
%
Delta-T
°C
Wind Press
QNH
hPa
Press
MSL
hPa
Rain since
9am
mm
Dir  Spd
km/h
Gust
km/h
Spd
kts
Gust
kts
22/11:30pm 25.1 26.3 17.3 62 4.9 SSW 7 9 4 5 1015.9 1014.8 5.2
22/11:00pm 25.5 27.3 18.7 66 4.4 SSW 7 9 4 5 1015.8 1014.7 5.2
22/10:30pm 25.5 26.9 17.9 63 4.8 SSW 7 11 4 6 1015.8 1014.7 5.2
22/10:00pm 25.8 26.6 17.4 59 5.3 S 9 15 5 8 1015.8 1014.7 5.2
22/09:30pm 25.8 27.1 18.5 64 4.7 S 9 11 5 6 1015.7 1014.6 5.2
22/09:00pm 26.0 26.9 17.6 60 5.3 S 9 11 5 6 1015.5 1014.4 5.2
22/08:30pm 26.3 25.3 16.5 54 6.1 SSW 17 24 9 13 1015.4 1014.3 5.2
22/08:00pm 25.2 24.7 17.7 63 4.7 SSW 17 20 9 11 1015.2 1014.1 5.2
22/07:30pm 25.2 25.4 19.3 70 3.8 SW 17 22 9 12 1015.1 1014.0 5.2
22/07:00pm 25.2 24.5 18.2 65 4.4 SSE 19 24 10 13 1014.6 1013.5 5.2
22/06:45pm 25.0 23.3 18.0 65 4.4 SSW 24 43 13 23 1014.4 1013.3 5.2
22/06:30pm 26.0 25.9 18.7 64 4.7 E 17 33 9 18 1014.4 1013.3 5.0
22/06:13pm 24.8 25.1 18.7 69 3.9 E 15 20 8 11 1014.1 1013.0 4.4
22/06:00pm 25.2 21.5 17.4 62 4.9 ESE 33 76 18 41 1013.9 1012.8 3.8
22/05:58pm 24.4 20.3 17.4 65 4.4 ESE 35 76 19 41 1014.1 1013.0 3.6
22/05:53pm 25.1 20.5 16.0 57 5.6 SE 35 76 19 41 1014.2 1013.1 2.0
22/05:51pm 26.0 22.0 16.8 57 5.7 SE 33 76 18 41 1013.8 1012.7 1.0
22/05:49pm 27.7 25.1 16.9 51 6.8 SE 26 48 14 26 1013.7 1012.6 1.0
22/05:30pm 28.3 26.7 15.9 47 7.7 SSW 19 26 10 14 1013.1 1012.0 0.8
22/05:00pm 31.8 29.3 13.5 32 11.1 SE 19 24 10 13 1012.8 1011.7 0.0
22/04:30pm 32.7 29.7 11.8 28 12.4 S 19 26 10 14 1012.4 1011.3 0.0
22/04:00pm 32.1 29.7 11.3 28 12.2 SSE 15 24 8 13 1012.2 1011.1 0.0
22/03:30pm 32.2 29.0 11.9 29 12.0 SSE 20 30 11 16 1012.2 1011.1 0.0
22/03:00pm 32.9 30.8 12.5 29 12.2 S 15 22 8 12 1012.3 1011.2 0.0
22/02:30pm 32.5 31.3 12.7 30 11.9 S 11 19 6 10 1012.3 1011.2 0.0
22/02:00pm 32.8 31.6 12.9 29 12.0 E 11 28 6 15 1012.7 1011.6 0.0
22/01:30pm 31.7 31.1 13.5 33 11.0 E 9 17 5 9 1013.2 1012.1 0.0
22/01:00pm 30.9 30.4 13.7 35 10.4 E 9 19 5 10 1013.8 1012.7 0.0
22/12:30pm 30.7 30.5 14.8 38 9.8 ESE 9 19 5 10 1014.3 1013.2 0.0
22/12:00pm 30.7 29.9 15.2 39 9.6 SE 13 20 7 11 1014.7 1013.6 0.0
22/11:30am 29.6 28.5 14.2 39 9.4 E 13 20 7 11 1015.2 1014.1 0.0
22/11:00am 29.9 29.1 15.2 41 9.1 ESE 13 22 7 12 1015.6 1014.5 0.0
22/10:30am 29.0 27.3 14.8 42 8.7 SE 17 24 9 13 1015.8 1014.7 0.0
22/10:00am 28.2 26.5 14.8 44 8.2 SE 17 24 9 13 1015.9 1014.8 0.0
22/09:30am 26.9 24.9 14.0 45 7.7 SSE 17 22 9 12 1016.0 1014.9 0.0
22/09:00am 25.1 23.0 13.6 49 6.8 S 17 20 9 11 1015.6 1014.5 0.0
22/08:30am 23.1 22.1 13.3 54 5.7 S 11 13 6 7 1015.5 1014.4 0.0
22/08:00am 21.8 21.0 12.9 57 5.1 S 9 11 5 6 1015.2 1014.1 0.0
22/07:30am 21.4 20.1 12.5 57 5.1 S 11 13 6 7 1014.7 1013.6 0.0
22/07:00am 21.1 19.3 12.0 56 5.1 SSW 13 13 7 7 1014.1 1013.0 0.0
22/06:30am 21.6 20.2 12.2 55 5.3 S 11 13 6 7 1013.8 1012.7 0.0
22/06:00am 22.1 20.3 12.1 53 5.7 SSW 13 13 7 7 1013.6 1012.5 0.0
22/05:30am 22.8 21.3 11.8 50 6.2 SSW 11 15 6 8 1013.3 1012.2 0.0
22/05:00am 23.2 21.7 11.9 49 6.4 SSW 11 13 6 7 1013.1 1012.0 0.0
22/04:30am 22.8 21.4 12.1 51 6.1 SSW 11 13 6 7 1012.9 1011.8 0.0
22/04:00am 22.9 21.8 11.9 50 6.3 SSW 9 13 5 7 1012.9 1011.8 0.0
22/03:30am 23.2 22.5 11.9 49 6.4 SW 7 9 4 5 1013.0 1011.9 0.0
22/03:00am 23.4 22.2 11.5 47 6.7 SW 9 11 5 6 1013.0 1011.9 0.0
22/02:30am 23.0 21.2 12.0 50 6.3 SW 13 17 7 9 1013.1 1012.0 0.0
22/02:00am 22.8 21.3 11.8 50 6.2 SSW 11 13 6 7 1013.2 1012.1 0.0
22/01:30am 24.3 23.6 11.9 45 7.1 SSW 7 9 4 5 1013.4 1012.3 0.0
22/01:00am 24.3 23.1 11.6 45 7.2 SSW 9 9 5 5 1013.8 1012.7 0.0
22/12:30am 24.7 22.7 11.6 44 7.5 SSW 13 15 7 8 1014.1 1013.0 0.0
22/12:00am 24.3 24.0 11.6 45 7.2 SW 4 7 2 4 1014.4 1013.3 0.0
 
Date/Time
EST
Temp
°C
App
Temp
°C
Dew
Point
°C
Rel
Hum
%
Delta-T
°C
Wind Press
QNH
hPa
Press
MSL
hPa
Rain since
9am
mm
Dir  Spd
km/h
Gust
km/h
Spd
kts
Gust
kts
21/11:30pm 24.9 22.1 11.5 43 7.6 S 17 19 9 10 1014.2 1013.1 0.0
21/11:00pm 25.6 23.3 10.6 39 8.4 SSE 13 15 7 8 1014.6 1013.5 0.0
21/10:30pm 27.1 24.4 10.3 35 9.5 SSE 15 19 8 10 1014.6 1013.5 0.0
21/10:00pm 27.4 25.6 11.0 36 9.4 SSE 11 15 6 8 1014.5 1013.4 0.0
21/09:30pm 27.2 25.4 10.8 36 9.3 S 11 13 6 7 1014.5 1013.4 0.0
21/09:00pm 27.5 25.4 11.1 36 9.4 SSW 13 15 7 8 1014.3 1013.2 0.0
21/08:30pm 26.9 25.3 11.4 38 8.9 SSW 11 13 6 7 1014.2 1013.1 0.0
21/08:00pm 26.4 24.7 11.3 39 8.6 SSW 11 13 6 7 1013.8 1012.7 0.0
21/07:30pm 27.0 24.8 10.7 36 9.3 SSW 13 13 7 7 1013.2 1012.1 0.0
21/07:00pm 28.0 26.2 10.7 34 9.9 SSW 11 13 6 7 1013.0 1011.9 0.0
21/06:30pm 28.1 26.3 10.8 34 9.9 SSW 11 11 6 6 1012.7 1011.6 0.0
21/06:00pm 30.2 27.9 9.1 27 11.9 SW 11 13 6 7 1012.4 1011.3 0.0

Other formats

Comma delimited format used in spreadsheet applications
http://www.bom.gov.au/fwo/IDQ60801/IDQ60801.94335.axf

JavaScript Object Notation format (JSON) in row-major order
http://www.bom.gov.au/fwo/IDQ60801/IDQ60801.94335.json

Data quality

Most of these data are generated automatically and are frequently updated. Quality checks on data are not normally performed. It is possible for incorrect values to appear. Refer to information at About Latest Weather Observations and please check the disclaimer before using these data.